Time;durP1;ratioP1;P1;durP2;ratioP2;P2;SDS_P1;SDS_P2;PMS_P1;PMS_P2;Temp;Humidity;BMP_temperature;BMP_pressure;BME280_temperature;BME280_humidity;BME280_pressure;Samples;Min_cycle;Max_cycle;Signal;HPM_P1;HPM_P2
2023/11/14 00:01:24;;;;;;;8.05;1.42;;;;;;;9.62;100.00;96590.13;5044489;28;20092;-64
2023/11/14 00:03:51;;;;;;;10.73;2.40;;;;;;;9.62;100.00;96603.66;5048422;28;20095;-64
2023/11/14 00:06:17;;;;;;;5.95;1.52;;;;;;;9.67;100.00;96599.34;5038741;28;20041;-64
2023/11/14 00:08:45;;;;;;;9.23;2.13;;;;;;;9.67;100.00;96605.56;5041402;28;20040;-64
2023/11/14 00:11:11;;;;;;;8.52;1.50;;;;;;;9.75;100.00;96602.34;5026151;28;20568;-63
2023/11/14 00:13:38;;;;;;;8.65;2.20;;;;;;;9.65;100.00;96594.19;5025213;28;20424;-64
2023/11/14 00:16:05;;;;;;;9.73;1.30;;;;;;;9.63;100.00;96585.56;5049101;28;20053;-64
2023/11/14 00:18:32;;;;;;;14.98;2.13;;;;;;;9.68;100.00;96590.97;5050793;28;20047;-64
2023/11/14 00:20:58;;;;;;;9.45;1.77;;;;;;;9.72;100.00;96599.34;5045517;28;20076;-64
2023/11/14 00:23:25;;;;;;;7.53;1.52;;;;;;;9.70;100.00;96599.63;5031313;28;20528;-65
2023/11/14 00:25:52;;;;;;;9.38;2.05;;;;;;;9.60;100.00;96589.59;5035616;28;20069;-64
2023/11/14 00:28:18;;;;;;;8.25;1.48;;;;;;;9.52;100.00;96590.09;5044036;28;20045;-64
2023/11/14 00:30:45;;;;;;;13.25;1.70;;;;;;;9.58;100.00;96601.75;5043249;28;20037;-64
2023/11/14 00:33:13;;;;;;;7.78;1.42;;;;;;;9.50;100.00;96606.59;5042273;28;20631;-64
2023/11/14 00:35:40;;;;;;;8.98;2.03;;;;;;;9.46;100.00;96594.69;5027265;28;20042;-64
2023/11/14 00:38:06;;;;;;;8.98;2.17;;;;;;;9.49;100.00;96610.38;5043759;28;20072;-64
2023/11/14 00:40:33;;;;;;;5.43;1.02;;;;;;;9.56;100.00;96614.72;5044572;28;20067;-64
2023/11/14 00:43:00;;;;;;;14.43;2.30;;;;;;;9.54;100.00;96614.16;5045609;28;20597;-64
2023/11/14 00:45:28;;;;;;;6.30;1.27;;;;;;;9.45;100.00;96603.88;5038442;28;20047;-64
2023/11/14 00:47:55;;;;;;;4.38;1.20;;;;;;;9.58;100.00;96610.66;5048285;28;20045;-64
2023/11/14 00:50:23;;;;;;;10.23;1.75;;;;;;;9.53;100.00;96609.81;5044455;28;20117;-65
2023/11/14 00:52:49;;;;;;;10.20;1.70;;;;;;;9.34;100.00;96610.28;5038870;28;20063;-65
2023/11/14 00:55:16;;;;;;;11.13;2.67;;;;;;;9.31;100.00;96598.13;5045165;28;20071;-64
2023/11/14 00:57:43;;;;;;;8.70;1.60;;;;;;;9.36;100.00;96605.41;5043109;28;20033;-64
2023/11/14 01:00:11;;;;;;;10.95;1.67;;;;;;;9.31;100.00;96603.53;5049088;28;20571;-64
2023/11/14 01:02:41;;;;;;;7.20;1.55;;;;;;;9.24;100.00;96598.38;5037817;28;20025;-64
2023/11/14 01:05:11;;;;;;;6.47;1.30;;;;;;;9.26;100.00;96602.69;5033810;28;20099;-64
2023/11/14 01:07:37;;;;;;;6.85;1.10;;;;;;;9.22;100.00;96615.91;5047743;28;20037;-64
2023/11/14 01:10:05;;;;;;;6.57;1.13;;;;;;;9.21;100.00;96608.84;5034860;28;20425;-64
2023/11/14 01:12:35;;;;;;;8.65;1.35;;;;;;;9.27;100.00;96617.81;5050159;28;20043;-64
2023/11/14 01:15:04;;;;;;;5.78;1.20;;;;;;;9.32;100.00;96625.97;5041539;28;20066;-64
2023/11/14 01:17:31;;;;;;;10.02;1.60;;;;;;;9.20;100.00;96637.78;5045063;28;20044;-64
2023/11/14 01:19:57;;;;;;;9.57;1.90;;;;;;;9.24;100.00;96643.47;5045191;28;20065;-64
2023/11/14 01:22:24;;;;;;;9.05;1.50;;;;;;;9.20;100.00;96636.94;5050650;28;20045;-64
2023/11/14 01:24:50;;;;;;;7.03;1.30;;;;;;;9.18;100.00;96644.50;5040653;28;20396;-65
2023/11/14 01:27:17;;;;;;;6.63;1.27;;;;;;;9.16;100.00;96652.88;5046297;28;20520;-64
2023/11/14 01:29:47;;;;;;;9.35;1.42;;;;;;;9.21;100.00;96658.31;5050801;28;20041;-64
2023/11/14 01:32:13;;;;;;;6.90;1.42;;;;;;;9.24;100.00;96665.91;5042726;28;20086;-64
2023/11/14 01:34:40;;;;;;;7.07;1.75;;;;;;;9.23;100.00;96660.75;5035405;28;20033;-64
2023/11/14 01:37:07;;;;;;;6.50;1.23;;;;;;;9.22;100.00;96662.63;5044570;28;20056;-64
2023/11/14 01:39:33;;;;;;;6.07;1.27;;;;;;;9.22;100.00;96659.91;5046569;28;20041;-64
2023/11/14 01:42:00;;;;;;;9.88;2.40;;;;;;;9.18;100.00;96653.41;5041220;28;20053;-64
2023/11/14 01:44:26;;;;;;;8.68;1.83;;;;;;;9.30;100.00;96665.91;5045624;28;20045;-63
2023/11/14 01:46:54;;;;;;;9.80;1.58;;;;;;;9.33;100.00;96660.78;5041652;28;20100;-64
2023/11/14 01:49:22;;;;;;;9.40;1.80;;;;;;;9.29;100.00;96673.19;5045245;28;20060;-64
2023/11/14 01:51:49;;;;;;;7.70;1.65;;;;;;;9.28;100.00;96671.56;5043893;28;20049;-64
2023/11/14 01:54:15;;;;;;;10.23;1.55;;;;;;;9.33;100.00;96681.63;5048329;28;20041;-64
2023/11/14 01:56:43;;;;;;;9.02;1.67;;;;;;;9.35;100.00;96690.25;5043378;28;20580;-64
2023/11/14 01:59:10;;;;;;;11.73;1.45;;;;;;;9.37;100.00;96680.81;5051144;28;20087;-64
2023/11/14 02:01:37;;;;;;;7.88;1.55;;;;;;;9.34;100.00;96685.94;5042308;28;20051;-64
2023/11/14 02:04:12;;;;;;;7.72;1.27;;;;;;;9.40;100.00;96678.69;5036535;28;20534;-64
2023/11/14 02:06:39;;;;;;;7.78;1.77;;;;;;;9.45;100.00;96676.00;5035401;28;20620;-64
2023/11/14 02:09:07;;;;;;;11.18;1.58;;;;;;;9.50;100.00;96670.63;5040497;28;20051;-64
2023/11/14 02:11:34;;;;;;;7.05;1.52;;;;;;;9.45;100.00;96692.22;5040071;28;20063;-64
2023/11/14 02:14:01;;;;;;;6.47;1.45;;;;;;;9.42;100.00;96688.16;5042278;28;20045;-64
2023/11/14 02:16:53;;;;;;;17.05;2.53;;;;;;;9.49;100.00;96672.53;5041717;28;20041;-64
2023/11/14 02:19:21;;;;;;;7.43;1.42;;;;;;;9.56;100.00;96674.16;5040320;28;20033;-64
2023/11/14 02:21:49;;;;;;;10.82;1.55;;;;;;;9.65;100.00;96683.41;5043616;28;20044;-64
2023/11/14 02:24:19;;;;;;;10.45;1.65;;;;;;;9.61;100.00;96682.28;5054801;28;20036;-64
2023/11/14 02:26:48;;;;;;;8.20;1.63;;;;;;;9.59;100.00;96687.16;5039738;28;20125;-64
2023/11/14 02:29:22;;;;;;;8.07;1.10;;;;;;;9.42;100.00;96690.84;5047411;28;20438;-64
2023/11/14 02:31:49;;;;;;;9.63;1.83;;;;;;;9.39;100.00;96698.69;5038843;28;20095;-64
2023/11/14 02:34:16;;;;;;;11.35;2.10;;;;;;;9.41;100.00;96683.81;5051371;28;20029;-64
2023/11/14 02:36:43;;;;;;;6.72;1.77;;;;;;;9.50;100.00;96681.44;5045394;28;20044;-64
2023/11/14 02:39:10;;;;;;;8.57;1.58;;;;;;;9.52;100.00;96684.69;5048807;28;20671;-64
2023/11/14 02:41:37;;;;;;;11.02;1.83;;;;;;;9.49;100.00;96686.03;5040252;28;20412;-64
2023/11/14 02:44:04;;;;;;;9.98;1.92;;;;;;;9.55;100.00;96681.44;5045088;28;20672;-64
2023/11/14 02:46:31;;;;;;;9.30;1.85;;;;;;;9.60;100.00;96657.16;5047249;28;20044;-64
2023/11/14 02:49:24;;;;;;;11.02;2.58;;;;;;;9.54;100.00;96660.91;5043810;28;20041;-64
2023/11/14 02:51:50;;;;;;;9.02;1.48;;;;;;;9.49;100.00;96653.59;5044387;28;20044;-64
2023/11/14 02:54:18;;;;;;;4.85;1.23;;;;;;;9.50;100.00;96644.41;5042837;28;20094;-64
2023/11/14 02:56:44;;;;;;;12.20;1.77;;;;;;;9.48;100.00;96641.16;5038482;28;20529;-64
2023/11/14 02:59:15;;;;;;;11.02;1.75;;;;;;;9.42;100.00;96646.78;5044494;28;20040;-64
2023/11/14 03:01:42;;;;;;;11.32;1.65;;;;;;;9.35;100.00;96649.72;5033394;28;20121;-64
2023/11/14 03:04:08;;;;;;;5.43;1.02;;;;;;;9.32;100.00;96661.09;5036029;28;20118;-64
2023/11/14 03:06:39;;;;;;;11.73;1.88;;;;;;;9.34;100.00;96667.03;5038385;28;20041;-64
2023/11/14 03:09:06;;;;;;;12.05;2.03;;;;;;;9.30;100.00;96671.31;5044375;28;20068;-64
2023/11/14 03:11:32;;;;;;;8.32;1.73;;;;;;;9.31;100.00;96679.16;5047732;28;20135;-64
2023/11/14 03:14:00;;;;;;;10.52;2.20;;;;;;;9.37;100.00;96683.50;5041959;28;20038;-64
2023/11/14 03:16:27;;;;;;;7.20;1.33;;;;;;;9.45;100.00;96686.81;5049542;28;20427;-64
2023/11/14 03:18:54;;;;;;;7.57;1.63;;;;;;;9.40;100.00;96684.88;5048087;28;20053;-64
2023/11/14 03:21:21;;;;;;;8.00;1.80;;;;;;;9.21;100.00;96689.88;5041401;28;20624;-64
2023/11/14 03:23:47;;;;;;;9.27;1.75;;;;;;;9.21;100.00;96703.41;5041074;28;20043;-64
2023/11/14 03:26:14;;;;;;;10.75;2.10;;;;;;;9.11;100.00;96704.16;5034532;28;20160;-64
2023/11/14 03:28:40;;;;;;;12.15;1.80;;;;;;;9.19;100.00;96700.97;5033433;28;20091;-64
2023/11/14 03:31:07;;;;;;;9.98;1.35;;;;;;;9.11;100.00;96686.06;5038950;28;20661;-64
2023/11/14 03:33:34;;;;;;;8.70;1.70;;;;;;;9.13;100.00;96690.41;5041569;28;20492;-64
2023/11/14 03:36:01;;;;;;;11.90;1.42;;;;;;;9.19;100.00;96692.88;5046368;28;20504;-64
2023/11/14 03:38:27;;;;;;;6.57;1.23;;;;;;;9.24;100.00;96705.59;5037697;28;20045;-64
2023/11/14 03:40:54;;;;;;;6.80;1.33;;;;;;;9.26;100.00;96710.72;5039095;28;20049;-64
2023/11/14 03:43:20;;;;;;;8.88;1.75;;;;;;;9.27;100.00;96718.59;5043881;28;20083;-64
2023/11/14 03:45:48;;;;;;;8.18;1.58;;;;;;;9.39;100.00;96723.78;5040149;28;20055;-64
2023/11/14 03:48:16;;;;;;;7.82;1.85;;;;;;;9.33;100.00;96731.03;5041012;28;20132;-64
2023/11/14 03:50:43;;;;;;;5.40;1.27;;;;;;;9.31;100.00;96738.59;5043558;28;20033;-64
2023/11/14 03:53:09;;;;;;;6.80;1.33;;;;;;;9.42;100.00;96758.41;5038814;28;20037;-64
2023/11/14 03:55:36;;;;;;;3.70;1.55;;;;;;;9.48;100.00;96751.94;5043786;28;20492;-64
2023/11/14 03:58:02;;;;;;;8.52;1.30;;;;;;;9.59;100.00;96746.63;5044841;28;20706;-64
2023/11/14 04:00:29;;;;;;;6.20;1.38;;;;;;;9.61;100.00;96736.34;5044456;28;20048;-64
2023/11/14 04:02:55;;;;;;;5.22;1.60;;;;;;;9.65;100.00;96737.47;5043615;28;20114;-64
2023/11/14 04:05:22;;;;;;;7.82;1.17;;;;;;;9.62;100.00;96738.00;5042211;28;20393;-64
2023/11/14 04:07:49;;;;;;;5.03;1.40;;;;;;;9.61;100.00;96737.16;5032252;28;20056;-64
2023/11/14 04:10:16;;;;;;;7.85;1.23;;;;;;;9.59;100.00;96735.81;5037801;28;20090;-64
2023/11/14 04:12:42;;;;;;;6.20;1.20;;;;;;;9.60;100.00;96750.94;5044470;28;20094;-64
2023/11/14 04:15:09;;;;;;;10.63;1.35;;;;;;;9.60;100.00;96754.47;5043679;28;20520;-64
2023/11/14 04:17:37;;;;;;;7.47;1.20;;;;;;;9.55;100.00;96764.44;5054012;28;20590;-64
2023/11/14 04:20:05;;;;;;;7.05;1.30;;;;;;;9.63;100.00;96747.72;5047522;28;20048;-64
2023/11/14 04:22:32;;;;;;;5.47;1.13;;;;;;;9.57;100.00;96741.47;5040915;28;20043;-64
2023/11/14 04:24:59;;;;;;;5.40;1.60;;;;;;;9.56;100.00;96737.16;5040708;28;20207;-64
2023/11/14 04:27:26;;;;;;;9.00;2.00;;;;;;;9.59;100.00;96738.50;5040820;28;20556;-64
2023/11/14 04:29:52;;;;;;;5.25;1.40;;;;;;;9.63;100.00;96750.44;5054879;28;20036;-64
2023/11/14 04:32:19;;;;;;;7.65;2.08;;;;;;;9.60;100.00;96742.84;5044806;28;20080;-64
2023/11/14 04:34:46;;;;;;;9.88;2.33;;;;;;;9.67;100.00;96754.25;5046514;28;20064;-65
2023/11/14 04:37:12;;;;;;;7.13;1.45;;;;;;;9.65;100.00;96753.69;5045804;28;20464;-64
2023/11/14 04:39:39;;;;;;;6.78;1.13;;;;;;;9.63;100.00;96750.44;5039032;28;20042;-64
2023/11/14 04:42:05;;;;;;;9.10;2.35;;;;;;;9.55;100.00;96745.50;5052059;28;20455;-64
2023/11/14 04:44:32;;;;;;;8.73;1.38;;;;;;;9.58;100.00;96753.09;5052682;28;20045;-64
2023/11/14 04:46:59;;;;;;;8.70;1.98;;;;;;;9.65;100.00;96758.28;5034086;28;20512;-64
2023/11/14 04:49:26;;;;;;;9.68;2.63;;;;;;;9.55;100.00;96767.94;5040262;28;20037;-64
2023/11/14 04:51:53;;;;;;;4.32;1.30;;;;;;;9.47;100.00;96757.63;5040188;28;20667;-64
2023/11/14 04:54:19;;;;;;;8.95;1.60;;;;;;;9.48;100.00;96768.16;5042243;28;20037;-64
2023/11/14 04:56:46;;;;;;;8.60;1.45;;;;;;;9.36;100.00;96759.41;5050519;28;20036;-64
2023/11/14 04:59:12;;;;;;;9.20;1.77;;;;;;;9.38;100.00;96765.41;5048143;28;20039;-64
2023/11/14 05:01:39;;;;;;;7.20;1.55;;;;;;;9.45;100.00;96767.88;5043096;28;20103;-64
2023/11/14 05:04:05;;;;;;;6.72;1.20;;;;;;;9.50;100.00;96773.31;5051462;28;20165;-64
2023/11/14 05:06:32;;;;;;;5.35;2.00;;;;;;;9.49;100.00;96785.19;5047043;28;20033;-64
2023/11/14 05:08:59;;;;;;;7.60;1.88;;;;;;;9.36;100.00;96776.47;5049565;28;20107;-64
2023/11/14 05:11:25;;;;;;;11.63;1.58;;;;;;;9.37;100.00;96771.88;5041283;28;20040;-64
2023/11/14 05:13:52;;;;;;;9.32;2.05;;;;;;;9.39;100.00;96772.41;5040772;28;20374;-64
2023/11/14 05:16:19;;;;;;;7.97;1.63;;;;;;;9.40;100.00;96778.66;5043523;28;20049;-64
2023/11/14 05:18:50;;;;;;;5.43;1.10;;;;;;;9.49;100.00;96772.50;5035976;28;20051;-64
2023/11/14 05:21:17;;;;;;;7.53;1.50;;;;;;;9.44;100.00;96761.66;5037807;28;20041;-64
2023/11/14 05:23:44;;;;;;;10.43;1.58;;;;;;;9.34;100.00;96767.00;5036301;28;20534;-64
2023/11/14 05:26:10;;;;;;;5.80;1.20;;;;;;;9.32;100.00;96778.06;5042623;28;20045;-64
2023/11/14 05:28:38;;;;;;;6.85;1.17;;;;;;;9.45;100.00;96789.50;5038458;28;20483;-64
2023/11/14 05:31:04;;;;;;;10.25;1.92;;;;;;;9.36;100.00;96775.63;5046045;28;20053;-64
2023/11/14 05:33:31;;;;;;;8.45;1.95;;;;;;;9.41;100.00;96791.91;5038428;28;20255;-64
2023/11/14 05:35:57;;;;;;;5.35;1.33;;;;;;;9.47;100.00;96788.16;5038995;28;20057;-65
2023/11/14 05:38:24;;;;;;;8.02;1.48;;;;;;;9.44;100.00;96785.16;5045345;28;20049;-64
2023/11/14 05:40:51;;;;;;;8.07;1.55;;;;;;;9.33;100.00;96795.09;5044854;28;20116;-64
2023/11/14 05:43:19;;;;;;;4.35;1.42;;;;;;;9.34;100.00;96792.13;5041657;28;20038;-64
2023/11/14 05:45:46;;;;;;;11.43;1.77;;;;;;;9.36;100.00;96791.84;5048432;28;20528;-64
2023/11/14 05:48:12;;;;;;;7.72;1.30;;;;;;;9.25;100.00;96780.13;5056178;28;20063;-64
2023/11/14 05:50:40;;;;;;;4.93;1.20;;;;;;;9.30;100.00;96782.09;5043099;28;20044;-64
2023/11/14 05:53:07;;;;;;;10.55;1.83;;;;;;;9.19;100.00;96779.31;5045761;28;20044;-65
2023/11/14 05:55:34;;;;;;;7.65;1.75;;;;;;;9.21;100.00;96785.25;5046578;28;20119;-64
2023/11/14 05:58:01;;;;;;;7.10;1.15;;;;;;;9.19;100.00;96773.09;5039106;28;20511;-64
2023/11/14 06:00:28;;;;;;;5.82;1.52;;;;;;;9.10;100.00;96783.53;5039505;28;20412;-64
2023/11/14 06:02:54;;;;;;;8.63;1.42;;;;;;;9.09;100.00;96790.00;5031484;28;20087;-64
2023/11/14 06:05:22;;;;;;;8.23;1.67;;;;;;;9.05;100.00;96795.13;5046715;28;20051;-64
2023/11/14 06:07:49;;;;;;;10.27;1.83;;;;;;;9.09;100.00;96781.91;5034048;28;20119;-65
2023/11/14 06:10:15;;;;;;;4.20;1.20;;;;;;;9.20;100.00;96774.72;5051192;28;20064;-64
2023/11/14 06:12:43;;;;;;;4.78;1.38;;;;;;;9.13;100.00;96776.81;5045061;28;20037;-64
2023/11/14 06:15:10;;;;;;;9.57;1.70;;;;;;;9.09;100.00;96773.81;5040462;28;20654;-64
2023/11/14 06:17:36;;;;;;;11.23;1.90;;;;;;;9.14;100.00;96773.84;5048513;28;20036;-64
2023/11/14 06:20:08;;;;;;;5.78;1.27;;;;;;;9.09;100.00;96774.63;5053807;28;20047;-64
2023/11/14 06:22:35;;;;;;;10.02;2.00;;;;;;;9.13;100.00;96771.44;5048578;28;20036;-64
2023/11/14 06:25:03;;;;;;;6.28;1.00;;;;;;;9.04;100.00;96776.47;5052695;28;20121;-64
2023/11/14 06:27:30;;;;;;;8.60;1.48;;;;;;;8.93;100.00;96781.78;5044450;28;20601;-64
2023/11/14 06:29:56;;;;;;;4.90;1.20;;;;;;;8.92;100.00;96782.03;5049028;28;20471;-64
2023/11/14 06:32:24;;;;;;;5.53;0.80;;;;;;;8.84;100.00;96781.44;5041146;28;20044;-64
2023/11/14 06:34:51;;;;;;;6.85;1.55;;;;;;;8.74;100.00;96783.22;5029137;28;20048;-64
2023/11/14 06:37:19;;;;;;;5.57;1.33;;;;;;;8.63;100.00;96785.00;5028386;28;20140;-64
2023/11/14 06:39:47;;;;;;;5.57;1.30;;;;;;;8.51;100.00;96799.41;5034785;28;20041;-64
2023/11/14 06:42:14;;;;;;;4.80;2.08;;;;;;;8.39;100.00;96812.22;5033160;28;20496;-64
2023/11/14 06:44:44;;;;;;;5.85;1.38;;;;;;;8.35;100.00;96806.50;5044425;28;20059;-64
2023/11/14 06:47:12;;;;;;;7.70;1.30;;;;;;;8.28;100.00;96814.78;5044586;28;20049;-64
2023/11/14 06:49:38;;;;;;;5.20;1.30;;;;;;;8.18;100.00;96799.28;5045788;28;20672;-64
2023/11/14 06:52:05;;;;;;;7.10;1.67;;;;;;;8.13;100.00;96807.31;5050372;28;20049;-64
2023/11/14 06:54:32;;;;;;;5.25;1.15;;;;;;;8.05;100.00;96816.66;5048804;28;20064;-65
2023/11/14 06:56:59;;;;;;;3.78;1.20;;;;;;;8.01;100.00;96817.41;5037529;28;20598;-64
2023/11/14 06:59:25;;;;;;;4.72;1.00;;;;;;;7.89;100.00;96818.31;5031084;28;20072;-64
2023/11/14 07:01:52;;;;;;;6.13;1.50;;;;;;;7.88;100.00;96821.25;5037802;28;20053;-65
2023/11/14 07:04:19;;;;;;;7.28;1.45;;;;;;;7.79;100.00;96834.34;5050378;28;20039;-64
2023/11/14 07:06:46;;;;;;;6.78;1.20;;;;;;;7.73;100.00;96840.72;5035552;28;20435;-64
2023/11/14 07:09:15;;;;;;;7.38;1.20;;;;;;;7.74;100.00;96848.56;5029719;28;20051;-65
2023/11/14 07:11:44;;;;;;;7.07;1.40;;;;;;;7.64;100.00;96854.63;5031192;28;20084;-64
2023/11/14 07:14:12;;;;;;;5.32;1.10;;;;;;;7.48;100.00;96871.63;5042771;28;20040;-64
2023/11/14 07:16:39;;;;;;;6.10;1.30;;;;;;;7.52;100.00;96878.94;5051995;28;21369;-64
2023/11/14 07:19:06;;;;;;;12.90;2.05;;;;;;;7.45;100.00;96866.69;5038897;28;20048;-65
2023/11/14 07:21:33;;;;;;;6.97;1.50;;;;;;;7.46;100.00;96866.47;5035797;28;20060;-65
2023/11/14 07:23:59;;;;;;;7.13;1.63;;;;;;;7.44;100.00;96862.38;5045303;28;20042;-64
2023/11/14 07:26:26;;;;;;;6.60;1.67;;;;;;;7.47;100.00;96853.78;5051272;28;20048;-64
2023/11/14 07:28:52;;;;;;;12.10;4.97;;;;;;;7.54;100.00;96849.06;5042211;28;20033;-65
2023/11/14 07:31:19;;;;;;;5.63;1.98;;;;;;;7.58;100.00;96838.59;5046283;28;20091;-64
2023/11/14 07:33:46;;;;;;;6.35;1.48;;;;;;;7.64;100.00;96846.56;5044124;28;20412;-64
2023/11/14 07:36:12;;;;;;;9.95;1.70;;;;;;;7.65;100.00;96858.94;5040714;28;20033;-65
2023/11/14 07:38:39;;;;;;;9.18;1.40;;;;;;;7.62;100.00;96847.81;5043600;28;20049;-64
2023/11/14 07:41:06;;;;;;;7.80;1.40;;;;;;;7.62;100.00;96845.97;5042250;28;20116;-64
2023/11/14 07:43:33;;;;;;;3.90;0.90;;;;;;;7.60;100.00;96858.06;5047638;28;20040;-64
2023/11/14 07:45:59;;;;;;;5.28;1.88;;;;;;;7.65;100.00;96879.69;5037885;28;20049;-64
2023/11/14 07:48:26;;;;;;;7.22;1.70;;;;;;;7.63;100.00;96892.59;5037783;28;20045;-64
2023/11/14 07:50:54;;;;;;;5.93;1.63;;;;;;;7.63;100.00;96893.41;5039711;28;20505;-65
2023/11/14 07:53:24;;;;;;;10.13;1.90;;;;;;;7.61;100.00;96876.66;5041607;28;20044;-64
2023/11/14 07:55:50;;;;;;;6.30;1.52;;;;;;;7.67;100.00;96878.38;5037998;28;20041;-64
2023/11/14 07:58:17;;;;;;;5.45;1.60;;;;;;;7.79;100.00;96877.47;5046926;28;20040;-65
2023/11/14 08:00:43;;;;;;;6.40;1.50;;;;;;;7.93;100.00;96873.38;5046834;28;20508;-57
2023/11/14 08:03:10;;;;;;;6.55;1.50;;;;;;;7.97;100.00;96859.41;5045975;28;20068;-58
2023/11/14 08:05:40;;;;;;;7.10;2.35;;;;;;;8.02;100.00;96856.78;5045900;28;20600;-57
2023/11/14 08:08:08;;;;;;;6.75;1.90;;;;;;;8.07;100.00;96863.06;5044176;28;20559;-55
2023/11/14 08:10:38;;;;;;;4.82;1.13;;;;;;;8.49;100.00;96873.56;5046277;28;20067;-55
2023/11/14 08:13:05;;;;;;;3.92;1.00;;;;;;;8.78;100.00;96882.34;5040942;28;20057;-56
2023/11/14 08:15:31;;;;;;;10.63;4.93;;;;;;;9.00;100.00;96886.91;5040606;28;20053;-56
2023/11/14 08:17:58;;;;;;;5.15;0.95;;;;;;;9.20;100.00;96888.16;5042039;28;20037;-58
2023/11/14 08:20:28;;;;;;;8.45;1.48;;;;;;;9.29;100.00;96897.44;5048166;28;20422;-57
2023/11/14 08:22:54;;;;;;;4.95;1.50;;;;;;;9.35;100.00;96911.81;5037882;28;20133;-56
2023/11/14 08:25:21;;;;;;;4.65;1.10;;;;;;;9.45;100.00;96900.28;5041778;28;20120;-53
2023/11/14 08:27:48;;;;;;;6.75;1.17;;;;;;;9.49;100.00;96888.72;5040932;28;20437;-51
2023/11/14 08:30:15;;;;;;;6.07;1.20;;;;;;;9.55;100.00;96867.94;5035894;28;20496;-51
2023/11/14 08:32:47;;;;;;;7.75;1.23;;;;;;;9.54;100.00;96862.81;5035515;28;20052;-54
2023/11/14 08:35:14;;;;;;;6.60;0.95;;;;;;;9.73;100.00;96876.75;5025505;28;20045;-52
2023/11/14 08:37:40;;;;;;;5.50;1.05;;;;;;;9.74;100.00;96881.06;5025708;28;20038;-52
2023/11/14 08:40:12;;;;;;;3.00;1.00;;;;;;;9.73;100.00;96860.53;5030969;28;20644;-55
2023/11/14 08:42:38;;;;;;;4.68;1.05;;;;;;;9.78;100.00;96865.13;5042384;28;20564;-54
2023/11/14 08:45:06;;;;;;;6.20;1.60;;;;;;;9.83;100.00;96852.47;5040676;28;20056;-52
2023/11/14 08:47:32;;;;;;;5.43;1.25;;;;;;;9.84;100.00;96859.50;5037764;28;20053;-64
2023/11/14 08:49:58;;;;;;;5.05;0.73;;;;;;;9.87;100.00;96861.69;5037211;28;20051;-65
2023/11/14 08:52:25;;;;;;;6.20;0.98;;;;;;;10.01;100.00;96853.13;5040097;28;20120;-65
2023/11/14 08:54:52;;;;;;;4.13;0.85;;;;;;;10.09;100.00;96849.09;5037427;28;20041;-68
2023/11/14 08:57:18;;;;;;;6.18;1.08;;;;;;;10.09;100.00;96854.50;5046472;28;20048;-68
2023/11/14 08:59:46;;;;;;;5.60;0.93;;;;;;;10.00;100.00;96867.72;5032331;28;20049;-64
2023/11/14 09:02:13;;;;;;;6.95;1.25;;;;;;;9.95;100.00;96887.44;5047870;28;20695;-66
2023/11/14 09:04:41;;;;;;;3.58;1.08;;;;;;;9.97;100.00;96881.75;5056537;28;20052;-66
2023/11/14 09:07:08;;;;;;;4.22;0.82;;;;;;;10.04;100.00;96881.53;5038681;28;20048;-67
2023/11/14 09:09:35;;;;;;;4.90;0.88;;;;;;;10.01;100.00;96877.47;5037178;28;20057;-66
2023/11/14 09:12:01;;;;;;;3.28;1.13;;;;;;;9.95;100.00;96867.69;5035220;28;20057;-67
2023/11/14 09:14:28;;;;;;;7.82;1.40;;;;;;;10.00;100.00;96849.59;5048171;28;20119;-67
2023/11/14 09:16:56;;;;;;;5.00;1.58;;;;;;;10.09;100.00;96854.50;5048821;28;20060;-66
2023/11/14 09:19:24;;;;;;;2.58;0.85;;;;;;;10.00;100.00;96852.28;5046752;28;20044;-67
2023/11/14 09:21:51;;;;;;;4.35;0.70;;;;;;;10.11;100.00;96844.25;5049151;28;20115;-66
2023/11/14 09:24:17;;;;;;;3.75;1.10;;;;;;;10.17;100.00;96850.53;5040458;28;20040;-65
2023/11/14 09:26:44;;;;;;;6.07;1.08;;;;;;;10.01;100.00;96869.34;5049170;28;20041;-66
2023/11/14 09:29:11;;;;;;;5.22;0.73;;;;;;;10.13;100.00;96866.44;5049234;28;20037;-71
2023/11/14 09:31:37;;;;;;;3.40;0.70;;;;;;;10.06;100.00;96863.97;5037671;28;20092;-66
2023/11/14 09:34:04;;;;;;;3.72;0.73;;;;;;;10.13;100.00;96869.97;5042399;28;20045;-66
2023/11/14 09:36:31;;;;;;;3.47;1.00;;;;;;;10.04;100.00;96873.41;5042380;28;20665;-66
2023/11/14 09:38:57;;;;;;;5.63;1.10;;;;;;;10.17;100.00;96891.91;5044048;28;20102;-65
2023/11/14 09:41:24;;;;;;;2.65;0.93;;;;;;;10.23;100.00;96898.97;5035175;28;20045;-66
2023/11/14 09:43:54;;;;;;;3.05;0.68;;;;;;;9.97;100.00;96896.13;5045212;28;20660;-66
2023/11/14 09:46:21;;;;;;;1.73;0.57;;;;;;;9.81;100.00;96887.09;5046123;28;20046;-66
2023/11/14 09:48:49;;;;;;;3.08;0.55;;;;;;;9.73;100.00;96871.34;5048196;28;20041;-66
2023/11/14 09:51:17;;;;;;;3.03;1.08;;;;;;;9.78;100.00;96879.47;5041304;28;20592;-66
2023/11/14 09:53:47;;;;;;;2.60;0.90;;;;;;;9.78;100.00;96884.88;5049618;28;20097;-65
2023/11/14 09:56:15;;;;;;;1.92;0.60;;;;;;;9.81;100.00;96881.69;5045422;28;20029;-66
2023/11/14 09:58:42;;;;;;;2.35;0.77;;;;;;;9.72;100.00;96888.59;5048550;28;20053;-65
2023/11/14 10:01:10;;;;;;;4.85;0.93;;;;;;;9.65;100.00;96899.63;5050697;28;20054;-65
2023/11/14 10:03:37;;;;;;;3.67;0.93;;;;;;;9.80;100.00;96900.84;5049386;28;20033;-65
2023/11/14 10:06:04;;;;;;;2.42;1.08;;;;;;;9.74;100.00;96898.09;5042775;28;20041;-66
2023/11/14 10:08:32;;;;;;;3.67;1.00;;;;;;;9.64;100.00;96895.31;5030554;28;20041;-63
2023/11/14 10:11:10;;;;;;;4.30;0.93;;;;;;;9.61;100.00;96885.00;5046074;28;20045;-63
2023/11/14 10:13:40;;;;;;;3.60;0.90;;;;;;;9.56;100.00;96883.09;5039195;28;20040;-64
2023/11/14 10:16:16;;;;;;;4.82;1.23;;;;;;;9.60;100.00;96902.31;5033058;28;20064;-64
2023/11/14 10:18:44;;;;;;;3.95;1.02;;;;;;;9.66;100.00;96874.22;5032303;28;20123;-64
2023/11/14 10:21:25;;;;;;;4.47;1.52;;;;;;;9.72;100.00;96866.97;5029746;28;20036;-64
2023/11/14 10:23:54;;;;;;;4.65;1.15;;;;;;;9.64;100.00;96868.28;5037513;28;20052;-64
2023/11/14 10:26:23;;;;;;;3.80;0.60;;;;;;;9.55;100.00;96857.13;5036196;28;20036;-64
2023/11/14 10:29:00;;;;;;;5.72;1.20;;;;;;;9.61;100.00;96856.09;5035439;28;20115;-64
2023/11/14 10:31:38;;;;;;;4.65;1.10;;;;;;;9.76;100.00;96846.47;5041283;28;20129;-64
2023/11/14 10:34:07;;;;;;;4.70;0.80;;;;;;;9.69;100.00;96843.19;5043708;28;20049;-66
2023/11/14 10:36:45;;;;;;;3.60;1.02;;;;;;;9.85;100.00;96852.22;5053039;28;20821;-66
2023/11/14 10:39:11;;;;;;;3.88;0.73;;;;;;;9.94;100.00;96842.53;5042282;28;20086;-66
2023/11/14 10:41:38;;;;;;;4.68;0.95;;;;;;;10.00;100.00;96865.03;5038042;28;20045;-65
2023/11/14 10:44:09;;;;;;;2.10;0.63;;;;;;;10.00;100.00;96862.31;5040668;28;20041;-69
2023/11/14 10:46:36;;;;;;;2.95;0.90;;;;;;;10.04;100.00;96884.25;5035438;28;20048;-65
2023/11/14 10:49:08;;;;;;;2.97;0.73;;;;;;;10.05;100.00;96869.63;5043237;28;20075;-65
2023/11/14 10:51:36;;;;;;;4.43;0.60;;;;;;;10.02;100.00;96868.28;5049360;28;20048;-67
2023/11/14 10:54:06;;;;;;;3.88;0.70;;;;;;;10.03;100.00;96867.22;5038194;28;20489;-66
2023/11/14 10:56:37;;;;;;;2.97;0.95;;;;;;;10.16;100.00;96860.50;5041142;28;20496;-67
2023/11/14 10:59:14;;;;;;;3.47;0.73;;;;;;;10.16;100.00;96876.75;5044755;28;20040;-67
2023/11/14 11:01:46;;;;;;;4.22;1.60;;;;;;;10.11;100.00;96857.78;5038022;28;20047;-66
2023/11/14 11:04:14;;;;;;;5.25;0.95;;;;;;;10.14;100.00;96860.78;5046387;28;20036;-66
2023/11/14 11:06:41;;;;;;;16.17;8.23;;;;;;;10.15;100.00;96840.75;5041551;28;20051;-67
2023/11/14 11:09:10;;;;;;;4.00;1.50;;;;;;;10.23;100.00;96853.00;5036742;28;20099;-67
2023/11/14 11:11:43;;;;;;;7.22;2.05;;;;;;;10.20;100.00;96831.03;5044166;28;20048;-66
2023/11/14 11:14:13;;;;;;;3.38;0.82;;;;;;;10.37;100.00;96810.03;5038076;28;20670;-67
2023/11/14 11:16:47;;;;;;;7.70;3.35;;;;;;;10.43;100.00;96800.03;5039561;28;20044;-66
2023/11/14 11:19:25;;;;;;;5.22;1.30;;;;;;;10.56;100.00;96778.97;5035837;28;20063;-66
2023/11/14 11:22:06;;;;;;;6.97;1.48;;;;;;;10.58;100.00;96758.69;5033670;28;20052;-67
2023/11/14 11:24:33;;;;;;;4.45;1.30;;;;;;;10.72;100.00;96753.56;5043874;28;20041;-66
2023/11/14 11:27:18;;;;;;;4.53;1.50;;;;;;;10.73;100.00;96748.97;5039186;28;20757;-66
2023/11/14 11:29:58;;;;;;;3.30;1.23;;;;;;;10.88;100.00;96721.09;5040110;28;20067;-67
2023/11/14 11:32:29;;;;;;;10.00;5.45;;;;;;;10.93;100.00;96694.84;5038713;28;20041;-66
2023/11/14 11:35:21;;;;;;;5.15;0.93;;;;;;;10.89;100.00;96679.38;5042708;28;20041;-66